AUH weather

Abu Dhabi International Airport
Abu Dhabi, Abu Dhabi Emirate, United Arab Emirates

Public forecast

Using degrees Celsius for public forecast. Weather courtesy of forecast.io.

Current aviation weather report (METAR) for Abu Dhabi International Airport

Retrieved 2019/10/15 08:00 UTC (24 minutes ago):

OMAA 150800Z VRB03KT CAVOK 36/15 Q1014 BECMG 33012KT

Aviation forecast (TAF) for Abu Dhabi International Airport

Retrieved 2019/10/15 06:00 UTC (2 hours ago):

TAF OMAA 150500Z 1506/1612 18008KT 8000 NSC BECMG 1509/1511 33012KT BECMG 1517/1519 05006KT PROB30 1600/1604 4000 HZ BECMG 1603/1605 15010KT BECMG 1609/1611 34012KT